sensor_id;sensor_type;location;lat;lon;timestamp;P1;durP1;ratioP1;P2;durP2;ratioP2
53843;SDS011;39744;53.314;5.710;2023-05-10T00:01:38;9.73;;;5.45;;
53843;SDS011;39744;53.314;5.710;2023-05-10T00:04:05;8.25;;;5.00;;
53843;SDS011;39744;53.314;5.710;2023-05-10T00:06:31;6.60;;;3.95;;
53843;SDS011;39744;53.314;5.710;2023-05-10T00:08:57;4.32;;;3.05;;
53843;SDS011;39744;53.314;5.710;2023-05-10T00:11:23;6.47;;;3.50;;
53843;SDS011;39744;53.314;5.710;2023-05-10T00:13:49;5.72;;;3.50;;
53843;SDS011;39744;53.314;5.710;2023-05-10T00:16:15;3.70;;;2.70;;
53843;SDS011;39744;53.314;5.710;2023-05-10T00:18:41;4.15;;;2.75;;
53843;SDS011;39744;53.314;5.710;2023-05-10T00:21:07;3.92;;;2.45;;
53843;SDS011;39744;53.314;5.710;2023-05-10T00:23:33;3.53;;;2.30;;
53843;SDS011;39744;53.314;5.710;2023-05-10T00:25:59;2.90;;;1.77;;
53843;SDS011;39744;53.314;5.710;2023-05-10T00:28:27;3.97;;;2.17;;
53843;SDS011;39744;53.314;5.710;2023-05-10T00:30:53;4.10;;;1.60;;
53843;SDS011;39744;53.314;5.710;2023-05-10T00:33:20;2.75;;;1.50;;
53843;SDS011;39744;53.314;5.710;2023-05-10T00:35:46;2.88;;;1.70;;
53843;SDS011;39744;53.314;5.710;2023-05-10T00:38:12;2.78;;;1.50;;
53843;SDS011;39744;53.314;5.710;2023-05-10T00:40:39;3.47;;;1.52;;
53843;SDS011;39744;53.314;5.710;2023-05-10T00:43:05;2.40;;;1.60;;
53843;SDS011;39744;53.314;5.710;2023-05-10T00:45:32;4.57;;;2.30;;
53843;SDS011;39744;53.314;5.710;2023-05-10T00:48:02;4.57;;;2.67;;
53843;SDS011;39744;53.314;5.710;2023-05-10T00:50:28;4.95;;;3.42;;
53843;SDS011;39744;53.314;5.710;2023-05-10T00:52:55;9.77;;;5.45;;
53843;SDS011;39744;53.314;5.710;2023-05-10T00:55:22;10.55;;;8.32;;
53843;SDS011;39744;53.314;5.710;2023-05-10T00:57:48;16.33;;;10.93;;
53843;SDS011;39744;53.314;5.710;2023-05-10T01:00:14;17.10;;;10.85;;
53843;SDS011;39744;53.314;5.710;2023-05-10T01:02:44;16.92;;;11.77;;
53843;SDS011;39744;53.314;5.710;2023-05-10T01:05:11;18.45;;;11.73;;
53843;SDS011;39744;53.314;5.710;2023-05-10T01:07:37;21.65;;;14.40;;
53843;SDS011;39744;53.314;5.710;2023-05-10T01:10:03;23.17;;;13.95;;
53843;SDS011;39744;53.314;5.710;2023-05-10T01:12:29;18.95;;;12.45;;
53843;SDS011;39744;53.314;5.710;2023-05-10T01:14:55;15.68;;;10.57;;
53843;SDS011;39744;53.314;5.710;2023-05-10T01:17:22;12.82;;;8.35;;
53843;SDS011;39744;53.314;5.710;2023-05-10T01:19:48;9.40;;;6.72;;
53843;SDS011;39744;53.314;5.710;2023-05-10T01:37:42;8.60;;;6.38;;
53843;SDS011;39744;53.314;5.710;2023-05-10T01:42:42;5.70;;;2.90;;
53843;SDS011;39744;53.314;5.710;2023-05-10T01:45:14;3.72;;;2.50;;
53843;SDS011;39744;53.314;5.710;2023-05-10T01:47:44;3.95;;;1.90;;
53843;SDS011;39744;53.314;5.710;2023-05-10T01:50:15;4.55;;;1.63;;
53843;SDS011;39744;53.314;5.710;2023-05-10T01:52:42;3.10;;;1.75;;
53843;SDS011;39744;53.314;5.710;2023-05-10T01:55:17;4.35;;;1.85;;
53843;SDS011;39744;53.314;5.710;2023-05-10T01:57:44;4.05;;;1.70;;
53843;SDS011;39744;53.314;5.710;2023-05-10T02:00:12;3.40;;;1.90;;
53843;SDS011;39744;53.314;5.710;2023-05-10T02:02:39;2.35;;;1.40;;
53843;SDS011;39744;53.314;5.710;2023-05-10T02:05:07;3.92;;;1.50;;
53843;SDS011;39744;53.314;5.710;2023-05-10T02:07:34;3.72;;;1.60;;
53843;SDS011;39744;53.314;5.710;2023-05-10T02:10:01;2.22;;;1.25;;
53843;SDS011;39744;53.314;5.710;2023-05-10T02:12:28;5.15;;;1.65;;
53843;SDS011;39744;53.314;5.710;2023-05-10T02:14:54;2.97;;;1.40;;
53843;SDS011;39744;53.314;5.710;2023-05-10T02:17:20;2.10;;;1.10;;
53843;SDS011;39744;53.314;5.710;2023-05-10T02:19:47;2.90;;;1.10;;
53843;SDS011;39744;53.314;5.710;2023-05-10T02:22:13;3.83;;;1.17;;
53843;SDS011;39744;53.314;5.710;2023-05-10T02:24:40;3.15;;;1.20;;
53843;SDS011;39744;53.314;5.710;2023-05-10T02:27:06;3.88;;;1.60;;
53843;SDS011;39744;53.314;5.710;2023-05-10T02:29:34;4.60;;;1.77;;
53843;SDS011;39744;53.314;5.710;2023-05-10T02:32:01;3.85;;;1.80;;
53843;SDS011;39744;53.314;5.710;2023-05-10T02:34:27;3.38;;;2.00;;
53843;SDS011;39744;53.314;5.710;2023-05-10T02:36:54;4.05;;;1.80;;
53843;SDS011;39744;53.314;5.710;2023-05-10T02:39:21;4.13;;;2.85;;
53843;SDS011;39744;53.314;5.710;2023-05-10T02:41:48;8.40;;;4.40;;
53843;SDS011;39744;53.314;5.710;2023-05-10T02:44:15;6.82;;;3.72;;
53843;SDS011;39744;53.314;5.710;2023-05-10T02:46:43;6.65;;;4.30;;
53843;SDS011;39744;53.314;5.710;2023-05-10T02:49:09;7.15;;;3.88;;
53843;SDS011;39744;53.314;5.710;2023-05-10T02:51:35;6.32;;;5.07;;
53843;SDS011;39744;53.314;5.710;2023-05-10T02:54:06;10.50;;;6.15;;
53843;SDS011;39744;53.314;5.710;2023-05-10T02:56:33;11.88;;;7.55;;
53843;SDS011;39744;53.314;5.710;2023-05-10T02:59:00;11.38;;;8.73;;
53843;SDS011;39744;53.314;5.710;2023-05-10T03:01:26;14.68;;;9.52;;
53843;SDS011;39744;53.314;5.710;2023-05-10T03:03:52;15.52;;;10.10;;
53843;SDS011;39744;53.314;5.710;2023-05-10T03:06:19;19.15;;;12.55;;
53843;SDS011;39744;53.314;5.710;2023-05-10T03:08:45;14.70;;;10.40;;
53843;SDS011;39744;53.314;5.710;2023-05-10T03:14:08;16.35;;;10.85;;
53843;SDS011;39744;53.314;5.710;2023-05-10T03:16:40;13.80;;;9.27;;
53843;SDS011;39744;53.314;5.710;2023-05-10T03:21:52;9.07;;;6.93;;
53843;SDS011;39744;53.314;5.710;2023-05-10T03:24:20;10.75;;;6.82;;
53843;SDS011;39744;53.314;5.710;2023-05-10T03:26:47;10.23;;;6.43;;
53843;SDS011;39744;53.314;5.710;2023-05-10T03:29:14;8.63;;;5.85;;
53843;SDS011;39744;53.314;5.710;2023-05-10T03:31:44;11.05;;;6.68;;
53843;SDS011;39744;53.314;5.710;2023-05-10T03:34:10;8.93;;;6.75;;
53843;SDS011;39744;53.314;5.710;2023-05-10T03:36:36;12.43;;;8.73;;
53843;SDS011;39744;53.314;5.710;2023-05-10T03:39:02;14.27;;;8.00;;
53843;SDS011;39744;53.314;5.710;2023-05-10T03:41:28;17.50;;;10.65;;
53843;SDS011;39744;53.314;5.710;2023-05-10T03:43:55;14.77;;;10.43;;
53843;SDS011;39744;53.314;5.710;2023-05-10T03:46:20;12.50;;;8.60;;
53843;SDS011;39744;53.314;5.710;2023-05-10T03:48:47;10.55;;;7.63;;
53843;SDS011;39744;53.314;5.710;2023-05-10T03:51:12;8.50;;;6.30;;
53843;SDS011;39744;53.314;5.710;2023-05-10T03:53:38;8.73;;;5.25;;
53843;SDS011;39744;53.314;5.710;2023-05-10T03:56:05;6.38;;;4.30;;
53843;SDS011;39744;53.314;5.710;2023-05-10T03:58:31;6.10;;;4.60;;
53843;SDS011;39744;53.314;5.710;2023-05-10T04:00:57;5.78;;;3.92;;
53843;SDS011;39744;53.314;5.710;2023-05-10T04:03:23;5.05;;;2.20;;
53843;SDS011;39744;53.314;5.710;2023-05-10T04:05:57;3.00;;;1.77;;
53843;SDS011;39744;53.314;5.710;2023-05-10T04:08:24;5.47;;;2.40;;
53843;SDS011;39744;53.314;5.710;2023-05-10T04:10:50;4.82;;;3.03;;
53843;SDS011;39744;53.314;5.710;2023-05-10T04:13:16;9.05;;;5.13;;
53843;SDS011;39744;53.314;5.710;2023-05-10T04:15:42;8.02;;;5.13;;
53843;SDS011;39744;53.314;5.710;2023-05-10T04:18:08;13.07;;;7.60;;
53843;SDS011;39744;53.314;5.710;2023-05-10T04:20:35;14.43;;;8.98;;
53843;SDS011;39744;53.314;5.710;2023-05-10T04:23:01;13.13;;;10.07;;
53843;SDS011;39744;53.314;5.710;2023-05-10T04:25:27;20.95;;;12.35;;
53843;SDS011;39744;53.314;5.710;2023-05-10T04:27:53;14.98;;;10.38;;
53843;SDS011;39744;53.314;5.710;2023-05-10T04:30:19;12.45;;;9.07;;
53843;SDS011;39744;53.314;5.710;2023-05-10T04:32:45;23.75;;;14.93;;
53843;SDS011;39744;53.314;5.710;2023-05-10T04:35:11;24.13;;;16.30;;
53843;SDS011;39744;53.314;5.710;2023-05-10T04:37:37;22.02;;;14.23;;
53843;SDS011;39744;53.314;5.710;2023-05-10T04:40:03;11.77;;;8.68;;
53843;SDS011;39744;53.314;5.710;2023-05-10T04:42:30;15.43;;;9.32;;
53843;SDS011;39744;53.314;5.710;2023-05-10T04:44:56;8.30;;;5.45;;
53843;SDS011;39744;53.314;5.710;2023-05-10T04:47:22;11.10;;;6.28;;
53843;SDS011;39744;53.314;5.710;2023-05-10T04:49:48;9.70;;;6.68;;
53843;SDS011;39744;53.314;5.710;2023-05-10T04:52:14;10.73;;;6.30;;
53843;SDS011;39744;53.314;5.710;2023-05-10T04:54:42;10.00;;;5.38;;
53843;SDS011;39744;53.314;5.710;2023-05-10T04:57:08;11.05;;;5.93;;
53843;SDS011;39744;53.314;5.710;2023-05-10T04:59:35;16.42;;;8.45;;
53843;SDS011;39744;53.314;5.710;2023-05-10T05:02:02;13.35;;;7.50;;
53843;SDS011;39744;53.314;5.710;2023-05-10T05:04:29;15.35;;;7.85;;
53843;SDS011;39744;53.314;5.710;2023-05-10T05:06:56;12.35;;;7.13;;
53843;SDS011;39744;53.314;5.710;2023-05-10T05:09:22;10.00;;;6.00;;
53843;SDS011;39744;53.314;5.710;2023-05-10T05:11:48;9.05;;;5.13;;
53843;SDS011;39744;53.314;5.710;2023-05-10T05:14:14;9.60;;;6.05;;
53843;SDS011;39744;53.314;5.710;2023-05-10T05:16:40;9.30;;;4.68;;
53843;SDS011;39744;53.314;5.710;2023-05-10T05:19:06;9.95;;;6.43;;
53843;SDS011;39744;53.314;5.710;2023-05-10T05:21:32;11.18;;;6.50;;
53843;SDS011;39744;53.314;5.710;2023-05-10T05:23:58;13.48;;;8.13;;
53843;SDS011;39744;53.314;5.710;2023-05-10T05:26:24;12.70;;;8.10;;
53843;SDS011;39744;53.314;5.710;2023-05-10T05:28:51;11.70;;;6.75;;
53843;SDS011;39744;53.314;5.710;2023-05-10T05:31:19;12.68;;;6.55;;
53843;SDS011;39744;53.314;5.710;2023-05-10T05:33:45;13.05;;;6.68;;
53843;SDS011;39744;53.314;5.710;2023-05-10T05:36:11;9.93;;;5.57;;
53843;SDS011;39744;53.314;5.710;2023-05-10T05:38:37;12.30;;;6.05;;
53843;SDS011;39744;53.314;5.710;2023-05-10T05:41:04;7.68;;;3.85;;
53843;SDS011;39744;53.314;5.710;2023-05-10T05:43:30;8.43;;;4.22;;
53843;SDS011;39744;53.314;5.710;2023-05-10T05:45:56;8.57;;;3.80;;
53843;SDS011;39744;53.314;5.710;2023-05-10T05:48:23;7.45;;;3.03;;
53843;SDS011;39744;53.314;5.710;2023-05-10T05:50:49;7.07;;;3.50;;
53843;SDS011;39744;53.314;5.710;2023-05-10T05:53:15;8.00;;;4.15;;
53843;SDS011;39744;53.314;5.710;2023-05-10T05:55:50;6.88;;;3.58;;
53843;SDS011;39744;53.314;5.710;2023-05-10T05:58:16;9.30;;;4.97;;
53843;SDS011;39744;53.314;5.710;2023-05-10T06:00:43;6.05;;;3.70;;
53843;SDS011;39744;53.314;5.710;2023-05-10T06:03:09;7.60;;;3.92;;
53843;SDS011;39744;53.314;5.710;2023-05-10T06:05:35;7.32;;;4.13;;
53843;SDS011;39744;53.314;5.710;2023-05-10T06:08:01;9.18;;;5.30;;
53843;SDS011;39744;53.314;5.710;2023-05-10T06:10:27;6.47;;;4.57;;
53843;SDS011;39744;53.314;5.710;2023-05-10T06:12:53;11.20;;;5.05;;
53843;SDS011;39744;53.314;5.710;2023-05-10T06:15:19;9.20;;;4.18;;
53843;SDS011;39744;53.314;5.710;2023-05-10T06:17:45;8.45;;;4.80;;
53843;SDS011;39744;53.314;5.710;2023-05-10T06:20:14;8.70;;;4.63;;
53843;SDS011;39744;53.314;5.710;2023-05-10T06:22:40;7.70;;;4.05;;
53843;SDS011;39744;53.314;5.710;2023-05-10T06:25:06;6.35;;;4.20;;
53843;SDS011;39744;53.314;5.710;2023-05-10T06:27:32;5.38;;;3.20;;
53843;SDS011;39744;53.314;5.710;2023-05-10T06:29:59;8.35;;;3.70;;
53843;SDS011;39744;53.314;5.710;2023-05-10T06:32:25;5.68;;;3.45;;
53843;SDS011;39744;53.314;5.710;2023-05-10T06:34:51;5.90;;;3.05;;
53843;SDS011;39744;53.314;5.710;2023-05-10T06:37:17;4.47;;;2.25;;
53843;SDS011;39744;53.314;5.710;2023-05-10T06:39:43;4.47;;;2.75;;
53843;SDS011;39744;53.314;5.710;2023-05-10T06:42:09;6.05;;;2.90;;
53843;SDS011;39744;53.314;5.710;2023-05-10T06:44:35;8.00;;;2.40;;
53843;SDS011;39744;53.314;5.710;2023-05-10T06:47:01;5.05;;;1.98;;
53843;SDS011;39744;53.314;5.710;2023-05-10T06:49:27;5.88;;;2.30;;
53843;SDS011;39744;53.314;5.710;2023-05-10T06:51:55;9.02;;;2.78;;
53843;SDS011;39744;53.314;5.710;2023-05-10T06:54:21;4.68;;;2.50;;
53843;SDS011;39744;53.314;5.710;2023-05-10T06:56:48;6.70;;;2.28;;
53843;SDS011;39744;53.314;5.710;2023-05-10T06:59:14;6.35;;;2.88;;
53843;SDS011;39744;53.314;5.710;2023-05-10T07:01:41;5.28;;;2.70;;
53843;SDS011;39744;53.314;5.710;2023-05-10T07:04:07;8.15;;;3.70;;
53843;SDS011;39744;53.314;5.710;2023-05-10T07:06:33;8.40;;;3.30;;
53843;SDS011;39744;53.314;5.710;2023-05-10T07:08:59;7.85;;;4.25;;
53843;SDS011;39744;53.314;5.710;2023-05-10T07:11:26;11.30;;;5.45;;
53843;SDS011;39744;53.314;5.710;2023-05-10T07:13:52;13.25;;;6.20;;
53843;SDS011;39744;53.314;5.710;2023-05-10T07:16:18;6.93;;;4.20;;
53843;SDS011;39744;53.314;5.710;2023-05-10T07:18:44;11.75;;;6.38;;
53843;SDS011;39744;53.314;5.710;2023-05-10T07:21:10;11.15;;;5.85;;
53843;SDS011;39744;53.314;5.710;2023-05-10T07:23:36;8.57;;;4.47;;
53843;SDS011;39744;53.314;5.710;2023-05-10T07:26:02;6.55;;;3.60;;
53843;SDS011;39744;53.314;5.710;2023-05-10T07:28:28;5.63;;;2.55;;
53843;SDS011;39744;53.314;5.710;2023-05-10T07:30:54;4.30;;;2.42;;
53843;SDS011;39744;53.314;5.710;2023-05-10T07:33:20;4.97;;;2.35;;
53843;SDS011;39744;53.314;5.710;2023-05-10T07:35:46;5.10;;;2.17;;
53843;SDS011;39744;53.314;5.710;2023-05-10T07:38:12;5.32;;;2.20;;
53843;SDS011;39744;53.314;5.710;2023-05-10T07:40:39;5.13;;;2.10;;
53843;SDS011;39744;53.314;5.710;2023-05-10T07:43:05;4.60;;;2.50;;
53843;SDS011;39744;53.314;5.710;2023-05-10T07:45:31;4.60;;;2.53;;
53843;SDS011;39744;53.314;5.710;2023-05-10T07:47:57;4.93;;;3.00;;
53843;SDS011;39744;53.314;5.710;2023-05-10T07:50:23;4.97;;;3.13;;
53843;SDS011;39744;53.314;5.710;2023-05-10T07:52:49;6.22;;;3.10;;
53843;SDS011;39744;53.314;5.710;2023-05-10T07:55:15;5.65;;;3.35;;
53843;SDS011;39744;53.314;5.710;2023-05-10T07:57:41;4.55;;;2.75;;
53843;SDS011;39744;53.314;5.710;2023-05-10T08:00:08;6.30;;;3.15;;
53843;SDS011;39744;53.314;5.710;2023-05-10T08:02:35;8.63;;;3.63;;
53843;SDS011;39744;53.314;5.710;2023-05-10T08:05:01;5.60;;;3.58;;
53843;SDS011;39744;53.314;5.710;2023-05-10T08:07:27;5.88;;;3.40;;
53843;SDS011;39744;53.314;5.710;2023-05-10T08:09:53;5.38;;;3.00;;
53843;SDS011;39744;53.314;5.710;2023-05-10T08:12:19;6.63;;;3.38;;
53843;SDS011;39744;53.314;5.710;2023-05-10T08:14:46;5.60;;;2.90;;
53843;SDS011;39744;53.314;5.710;2023-05-10T08:17:12;4.85;;;2.90;;
53843;SDS011;39744;53.314;5.710;2023-05-10T08:19:38;6.20;;;3.33;;
53843;SDS011;39744;53.314;5.710;2023-05-10T08:22:04;6.95;;;3.80;;
53843;SDS011;39744;53.314;5.710;2023-05-10T08:24:30;7.40;;;3.78;;
53843;SDS011;39744;53.314;5.710;2023-05-10T08:26:56;6.18;;;3.50;;
53843;SDS011;39744;53.314;5.710;2023-05-10T08:29:22;6.97;;;3.33;;
53843;SDS011;39744;53.314;5.710;2023-05-10T08:31:48;6.13;;;3.70;;
53843;SDS011;39744;53.314;5.710;2023-05-10T08:34:14;7.00;;;3.78;;
53843;SDS011;39744;53.314;5.710;2023-05-10T08:36:40;5.72;;;3.35;;
53843;SDS011;39744;53.314;5.710;2023-05-10T08:39:06;6.95;;;3.40;;
53843;SDS011;39744;53.314;5.710;2023-05-10T08:41:33;4.97;;;3.13;;
53843;SDS011;39744;53.314;5.710;2023-05-10T08:43:59;7.20;;;4.05;;
53843;SDS011;39744;53.314;5.710;2023-05-10T08:46:30;5.43;;;3.42;;
53843;SDS011;39744;53.314;5.710;2023-05-10T08:48:57;8.10;;;4.30;;
53843;SDS011;39744;53.314;5.710;2023-05-10T08:51:25;8.68;;;4.60;;
53843;SDS011;39744;53.314;5.710;2023-05-10T08:53:53;11.07;;;6.15;;
53843;SDS011;39744;53.314;5.710;2023-05-10T08:56:19;12.57;;;7.25;;
53843;SDS011;39744;53.314;5.710;2023-05-10T08:58:45;14.50;;;8.15;;
53843;SDS011;39744;53.314;5.710;2023-05-10T09:01:12;17.33;;;8.63;;
53843;SDS011;39744;53.314;5.710;2023-05-10T09:03:38;15.20;;;7.90;;
53843;SDS011;39744;53.314;5.710;2023-05-10T09:06:04;14.38;;;7.22;;
53843;SDS011;39744;53.314;5.710;2023-05-10T09:08:31;19.92;;;7.80;;
53843;SDS011;39744;53.314;5.710;2023-05-10T09:10:58;14.80;;;7.85;;
53843;SDS011;39744;53.314;5.710;2023-05-10T09:13:26;14.50;;;8.18;;
53843;SDS011;39744;53.314;5.710;2023-05-10T09:15:53;13.25;;;7.97;;
53843;SDS011;39744;53.314;5.710;2023-05-10T09:18:19;13.35;;;7.82;;
53843;SDS011;39744;53.314;5.710;2023-05-10T09:20:45;12.95;;;7.28;;
53843;SDS011;39744;53.314;5.710;2023-05-10T09:23:11;15.70;;;8.13;;
53843;SDS011;39744;53.314;5.710;2023-05-10T09:25:38;12.63;;;7.57;;
53843;SDS011;39744;53.314;5.710;2023-05-10T09:28:07;13.30;;;6.95;;
53843;SDS011;39744;53.314;5.710;2023-05-10T09:30:35;11.30;;;6.55;;
53843;SDS011;39744;53.314;5.710;2023-05-10T09:33:01;10.98;;;6.55;;
53843;SDS011;39744;53.314;5.710;2023-05-10T09:35:28;11.63;;;6.45;;
53843;SDS011;39744;53.314;5.710;2023-05-10T09:37:56;11.80;;;6.32;;
53843;SDS011;39744;53.314;5.710;2023-05-10T09:40:23;11.93;;;6.05;;
53843;SDS011;39744;53.314;5.710;2023-05-10T09:42:56;15.50;;;7.35;;
53843;SDS011;39744;53.314;5.710;2023-05-10T09:45:22;10.48;;;5.65;;
53843;SDS011;39744;53.314;5.710;2023-05-10T09:47:49;13.55;;;6.70;;
53843;SDS011;39744;53.314;5.710;2023-05-10T09:50:15;15.57;;;6.82;;
53843;SDS011;39744;53.314;5.710;2023-05-10T09:52:52;16.98;;;7.72;;
53843;SDS011;39744;53.314;5.710;2023-05-10T09:55:22;16.13;;;7.40;;
53843;SDS011;39744;53.314;5.710;2023-05-10T09:57:49;12.48;;;7.57;;
53843;SDS011;39744;53.314;5.710;2023-05-10T10:00:19;10.13;;;6.57;;
53843;SDS011;39744;53.314;5.710;2023-05-10T10:02:53;11.75;;;6.93;;
53843;SDS011;39744;53.314;5.710;2023-05-10T10:05:20;12.75;;;8.15;;
53843;SDS011;39744;53.314;5.710;2023-05-10T10:07:46;14.52;;;8.90;;
53843;SDS011;39744;53.314;5.710;2023-05-10T10:10:14;16.00;;;10.07;;
53843;SDS011;39744;53.314;5.710;2023-05-10T10:12:40;16.15;;;10.25;;
53843;SDS011;39744;53.314;5.710;2023-05-10T10:15:07;16.98;;;10.75;;
53843;SDS011;39744;53.314;5.710;2023-05-10T10:17:35;18.13;;;11.63;;
53843;SDS011;39744;53.314;5.710;2023-05-10T10:20:03;15.13;;;10.93;;
53843;SDS011;39744;53.314;5.710;2023-05-10T10:22:29;14.80;;;9.88;;
53843;SDS011;39744;53.314;5.710;2023-05-10T10:24:55;17.65;;;10.43;;
53843;SDS011;39744;53.314;5.710;2023-05-10T10:27:23;12.13;;;8.73;;
53843;SDS011;39744;53.314;5.710;2023-05-10T10:35:10;11.88;;;8.30;;
53843;SDS011;39744;53.314;5.710;2023-05-10T10:37:43;15.68;;;8.23;;
53843;SDS011;39744;53.314;5.710;2023-05-10T10:42:51;11.15;;;7.57;;
53843;SDS011;39744;53.314;5.710;2023-05-10T10:45:18;14.10;;;8.88;;
53843;SDS011;39744;53.314;5.710;2023-05-10T10:47:45;14.52;;;9.77;;
53843;SDS011;39744;53.314;5.710;2023-05-10T10:50:11;14.73;;;9.25;;
53843;SDS011;39744;53.314;5.710;2023-05-10T10:52:44;18.35;;;10.73;;
53843;SDS011;39744;53.314;5.710;2023-05-10T11:02:50;19.17;;;12.32;;
53843;SDS011;39744;53.314;5.710;2023-05-10T11:07:56;20.52;;;12.60;;
53843;SDS011;39744;53.314;5.710;2023-05-10T11:10:22;21.83;;;12.40;;
53843;SDS011;39744;53.314;5.710;2023-05-10T11:12:52;19.90;;;12.35;;
53843;SDS011;39744;53.314;5.710;2023-05-10T11:15:19;20.73;;;13.35;;
53843;SDS011;39744;53.314;5.710;2023-05-10T11:17:47;20.60;;;12.98;;
53843;SDS011;39744;53.314;5.710;2023-05-10T11:20:16;21.23;;;13.43;;
53843;SDS011;39744;53.314;5.710;2023-05-10T11:22:54;19.48;;;12.07;;
53843;SDS011;39744;53.314;5.710;2023-05-10T11:25:23;15.10;;;10.48;;
53843;SDS011;39744;53.314;5.710;2023-05-10T11:27:52;17.23;;;11.38;;
53843;SDS011;39744;53.314;5.710;2023-05-10T11:30:18;16.90;;;10.93;;
53843;SDS011;39744;53.314;5.710;2023-05-10T11:32:44;15.63;;;11.00;;
53843;SDS011;39744;53.314;5.710;2023-05-10T11:35:10;14.65;;;10.05;;
53843;SDS011;39744;53.314;5.710;2023-05-10T11:37:38;20.33;;;13.07;;
53843;SDS011;39744;53.314;5.710;2023-05-10T11:40:08;18.70;;;12.02;;
53843;SDS011;39744;53.314;5.710;2023-05-10T11:42:36;18.77;;;11.68;;
53843;SDS011;39744;53.314;5.710;2023-05-10T11:45:03;19.23;;;12.25;;
53843;SDS011;39744;53.314;5.710;2023-05-10T11:47:29;16.60;;;11.32;;
53843;SDS011;39744;53.314;5.710;2023-05-10T11:49:55;17.65;;;11.63;;
53843;SDS011;39744;53.314;5.710;2023-05-10T11:52:22;17.42;;;10.93;;
53843;SDS011;39744;53.314;5.710;2023-05-10T11:54:51;15.73;;;10.20;;
53843;SDS011;39744;53.314;5.710;2023-05-10T11:57:18;16.98;;;11.10;;
53843;SDS011;39744;53.314;5.710;2023-05-10T11:59:45;19.00;;;11.68;;
53843;SDS011;39744;53.314;5.710;2023-05-10T12:02:12;13.52;;;9.45;;
53843;SDS011;39744;53.314;5.710;2023-05-10T12:04:38;18.35;;;11.80;;
53843;SDS011;39744;53.314;5.710;2023-05-10T12:07:05;15.88;;;10.88;;
53843;SDS011;39744;53.314;5.710;2023-05-10T12:09:31;15.85;;;10.27;;
53843;SDS011;39744;53.314;5.710;2023-05-10T12:11:57;14.60;;;10.05;;
53843;SDS011;39744;53.314;5.710;2023-05-10T12:14:23;14.52;;;10.45;;
53843;SDS011;39744;53.314;5.710;2023-05-10T12:16:49;18.67;;;11.13;;
53843;SDS011;39744;53.314;5.710;2023-05-10T12:19:19;19.77;;;12.15;;
53843;SDS011;39744;53.314;5.710;2023-05-10T12:21:46;20.77;;;13.02;;
53843;SDS011;39744;53.314;5.710;2023-05-10T12:24:12;14.68;;;9.48;;
53843;SDS011;39744;53.314;5.710;2023-05-10T12:26:41;18.25;;;11.70;;
53843;SDS011;39744;53.314;5.710;2023-05-10T12:29:11;21.73;;;12.05;;
53843;SDS011;39744;53.314;5.710;2023-05-10T12:31:53;17.70;;;10.68;;
53843;SDS011;39744;53.314;5.710;2023-05-10T12:34:24;17.13;;;11.70;;
53843;SDS011;39744;53.314;5.710;2023-05-10T12:36:52;15.77;;;9.98;;
53843;SDS011;39744;53.314;5.710;2023-05-10T12:39:18;16.88;;;10.85;;
53843;SDS011;39744;53.314;5.710;2023-05-10T12:41:44;16.83;;;10.65;;
53843;SDS011;39744;53.314;5.710;2023-05-10T12:44:10;18.60;;;10.50;;
53843;SDS011;39744;53.314;5.710;2023-05-10T12:46:36;14.90;;;10.05;;
53843;SDS011;39744;53.314;5.710;2023-05-10T12:49:02;14.38;;;9.20;;
53843;SDS011;39744;53.314;5.710;2023-05-10T12:51:28;13.00;;;8.98;;
53843;SDS011;39744;53.314;5.710;2023-05-10T12:53:55;12.10;;;8.88;;
53843;SDS011;39744;53.314;5.710;2023-05-10T12:56:21;10.57;;;7.88;;
53843;SDS011;39744;53.314;5.710;2023-05-10T12:58:47;12.45;;;8.90;;
53843;SDS011;39744;53.314;5.710;2023-05-10T13:01:14;9.38;;;6.88;;
53843;SDS011;39744;53.314;5.710;2023-05-10T13:03:40;10.43;;;7.25;;
53843;SDS011;39744;53.314;5.710;2023-05-10T13:06:06;8.95;;;6.10;;
53843;SDS011;39744;53.314;5.710;2023-05-10T13:08:32;7.50;;;5.30;;
53843;SDS011;39744;53.314;5.710;2023-05-10T13:11:01;8.57;;;5.50;;
53843;SDS011;39744;53.314;5.710;2023-05-10T13:13:28;7.70;;;5.68;;
53843;SDS011;39744;53.314;5.710;2023-05-10T13:15:54;6.28;;;4.85;;
53843;SDS011;39744;53.314;5.710;2023-05-10T13:18:20;11.93;;;6.47;;
53843;SDS011;39744;53.314;5.710;2023-05-10T13:20:46;7.60;;;5.40;;
53843;SDS011;39744;53.314;5.710;2023-05-10T13:23:14;8.82;;;6.93;;
53843;SDS011;39744;53.314;5.710;2023-05-10T13:25:40;7.75;;;5.70;;
53843;SDS011;39744;53.314;5.710;2023-05-10T13:28:06;8.60;;;6.75;;
53843;SDS011;39744;53.314;5.710;2023-05-10T13:30:33;8.40;;;6.88;;
53843;SDS011;39744;53.314;5.710;2023-05-10T13:32:59;8.45;;;6.47;;
53843;SDS011;39744;53.314;5.710;2023-05-10T13:35:25;13.20;;;7.75;;
53843;SDS011;39744;53.314;5.710;2023-05-10T13:37:51;8.13;;;6.45;;
53843;SDS011;39744;53.314;5.710;2023-05-10T13:40:18;8.98;;;6.85;;
53843;SDS011;39744;53.314;5.710;2023-05-10T13:42:44;8.95;;;7.03;;
53843;SDS011;39744;53.314;5.710;2023-05-10T13:45:10;10.63;;;8.43;;
53843;SDS011;39744;53.314;5.710;2023-05-10T13:47:38;11.35;;;9.10;;
53843;SDS011;39744;53.314;5.710;2023-05-10T13:50:04;9.23;;;7.22;;
53843;SDS011;39744;53.314;5.710;2023-05-10T13:52:30;9.85;;;6.07;;
53843;SDS011;39744;53.314;5.710;2023-05-10T13:54:56;9.40;;;6.43;;
53843;SDS011;39744;53.314;5.710;2023-05-10T13:57:23;6.63;;;5.18;;
53843;SDS011;39744;53.314;5.710;2023-05-10T13:59:49;7.22;;;4.85;;
53843;SDS011;39744;53.314;5.710;2023-05-10T14:02:15;7.25;;;5.60;;
53843;SDS011;39744;53.314;5.710;2023-05-10T14:04:42;7.30;;;5.80;;
53843;SDS011;39744;53.314;5.710;2023-05-10T14:07:08;7.75;;;6.18;;
53843;SDS011;39744;53.314;5.710;2023-05-10T14:09:34;7.05;;;5.72;;
53843;SDS011;39744;53.314;5.710;2023-05-10T14:12:00;7.20;;;4.90;;
53843;SDS011;39744;53.314;5.710;2023-05-10T14:14:27;11.15;;;6.25;;
53843;SDS011;39744;53.314;5.710;2023-05-10T14:16:54;7.38;;;5.65;;
53843;SDS011;39744;53.314;5.710;2023-05-10T14:19:20;8.63;;;5.72;;
53843;SDS011;39744;53.314;5.710;2023-05-10T14:21:46;7.50;;;6.00;;
53843;SDS011;39744;53.314;5.710;2023-05-10T14:24:12;7.93;;;5.78;;
53843;SDS011;39744;53.314;5.710;2023-05-10T14:26:38;7.22;;;5.70;;
53843;SDS011;39744;53.314;5.710;2023-05-10T14:29:04;7.75;;;5.80;;
53843;SDS011;39744;53.314;5.710;2023-05-10T14:31:31;7.97;;;6.43;;
53843;SDS011;39744;53.314;5.710;2023-05-10T14:33:57;7.78;;;6.00;;
53843;SDS011;39744;53.314;5.710;2023-05-10T14:36:24;8.10;;;6.45;;
53843;SDS011;39744;53.314;5.710;2023-05-10T14:38:50;8.68;;;6.15;;
53843;SDS011;39744;53.314;5.710;2023-05-10T14:41:17;8.48;;;6.25;;
53843;SDS011;39744;53.314;5.710;2023-05-10T14:43:43;7.47;;;6.10;;
53843;SDS011;39744;53.314;5.710;2023-05-10T14:46:09;7.95;;;6.30;;
53843;SDS011;39744;53.314;5.710;2023-05-10T14:48:36;7.57;;;6.32;;
53843;SDS011;39744;53.314;5.710;2023-05-10T14:51:02;7.88;;;6.22;;
53843;SDS011;39744;53.314;5.710;2023-05-10T14:53:28;7.88;;;5.55;;
53843;SDS011;39744;53.314;5.710;2023-05-10T14:55:54;7.55;;;6.00;;
53843;SDS011;39744;53.314;5.710;2023-05-10T14:58:20;8.93;;;6.20;;
53843;SDS011;39744;53.314;5.710;2023-05-10T15:00:46;8.82;;;6.45;;
53843;SDS011;39744;53.314;5.710;2023-05-10T15:03:12;9.10;;;7.10;;
53843;SDS011;39744;53.314;5.710;2023-05-10T15:05:38;10.50;;;8.20;;
53843;SDS011;39744;53.314;5.710;2023-05-10T15:08:05;11.80;;;7.45;;
53843;SDS011;39744;53.314;5.710;2023-05-10T15:10:31;11.10;;;7.40;;
53843;SDS011;39744;53.314;5.710;2023-05-10T15:12:57;9.63;;;6.88;;
53843;SDS011;39744;53.314;5.710;2023-05-10T15:15:23;9.20;;;6.03;;
53843;SDS011;39744;53.314;5.710;2023-05-10T15:17:50;8.50;;;6.10;;